createdAt,value
2023-05-08T00:00:43.799Z,79.29
2023-05-08T00:01:23.899Z,79.52
2023-05-08T00:02:04.855Z,79.19
2023-05-08T00:02:47.159Z,79.93
2023-05-08T00:03:27.143Z,78.99
2023-05-08T00:04:15.032Z,79.35
2023-05-08T00:05:08.866Z,78.82
2023-05-08T00:06:02.829Z,79.04
2023-05-08T00:06:57.819Z,78.44
2023-05-08T00:07:51.841Z,78.71
2023-05-08T00:08:46.800Z,78.46
2023-05-08T00:09:33.842Z,78.69
2023-05-08T00:10:07.897Z,78.62
2023-05-08T00:10:55.810Z,79.03
2023-05-08T00:11:29.905Z,78.79
2023-05-08T00:12:16.808Z,78.94
2023-05-08T00:12:50.914Z,78.91
2023-05-08T00:13:37.798Z,78.87
2023-05-08T00:14:11.922Z,79.04
2023-05-08T00:14:58.827Z,78.62
2023-05-08T00:15:32.875Z,78.57
2023-05-08T00:16:19.851Z,78.70
2023-05-08T00:16:53.986Z,78.79
2023-05-08T00:17:40.872Z,78.47
2023-05-08T00:18:14.897Z,78.73
2023-05-08T00:19:02.784Z,78.67
2023-05-08T00:19:36.877Z,78.85
2023-05-08T00:20:23.833Z,78.93
2023-05-08T00:20:57.941Z,78.40
2023-05-08T00:21:45.817Z,78.64
2023-05-08T00:22:26.888Z,78.69
2023-05-08T00:23:06.790Z,78.21
2023-05-08T00:23:46.911Z,78.64
2023-05-08T00:24:26.816Z,78.58
2023-05-08T00:25:06.936Z,78.30
2023-05-08T00:25:46.825Z,78.03
2023-05-08T00:26:27.891Z,78.35
2023-05-08T00:27:07.805Z,78.18
2023-05-08T00:27:47.912Z,78.69
2023-05-08T00:28:27.843Z,78.56
2023-05-08T00:29:07.865Z,78.81
2023-05-08T00:29:48.784Z,78.29
2023-05-08T00:30:29.912Z,78.45
2023-05-08T00:31:09.800Z,78.67
2023-05-08T00:31:49.857Z,78.48
2023-05-08T00:32:29.822Z,78.24
2023-05-08T00:33:10.002Z,78.68
2023-05-08T00:33:49.802Z,78.78
2023-05-08T00:34:30.949Z,78.25
2023-05-08T00:35:11.799Z,78.72
2023-05-08T00:35:51.892Z,78.30
2023-05-08T00:36:32.839Z,78.49
2023-05-08T00:37:12.905Z,78.52
2023-05-08T00:37:52.779Z,78.58
2023-05-08T00:38:33.866Z,78.73
2023-05-08T00:39:14.802Z,79.18
2023-05-08T00:39:54.842Z,78.46
2023-05-08T00:40:34.796Z,78.55
2023-05-08T00:41:16.152Z,78.49
2023-05-08T00:41:55.778Z,78.57
2023-05-08T00:42:36.886Z,78.65
2023-05-08T00:43:16.819Z,78.98
2023-05-08T00:43:56.875Z,78.81
2023-05-08T00:44:36.762Z,78.64
2023-05-08T00:45:17.841Z,79.34
2023-05-08T00:45:58.853Z,78.58
2023-05-08T00:46:39.967Z,78.88
2023-05-08T00:47:19.915Z,78.42
2023-05-08T00:47:59.908Z,78.79
2023-05-08T00:48:41.796Z,78.97
2023-05-08T00:49:22.863Z,79.50
2023-05-08T00:50:02.766Z,79.55
2023-05-08T00:50:43.851Z,78.94
2023-05-08T00:51:23.758Z,79.26
2023-05-08T00:52:03.917Z,79.02
2023-05-08T00:52:43.757Z,79.40
2023-05-08T00:53:23.861Z,79.49
2023-05-08T00:54:03.776Z,79.15
2023-05-08T00:54:44.846Z,78.91
2023-05-08T00:55:26.777Z,78.60
2023-05-08T00:56:07.875Z,79.03
2023-05-08T00:56:47.751Z,78.96
2023-05-08T00:57:28.847Z,79.08
2023-05-08T00:58:08.807Z,78.82
2023-05-08T00:58:51.196Z,78.76
2023-05-08T00:59:32.772Z,78.78
2023-05-08T01:00:14.031Z,79.00
2023-05-08T01:00:53.784Z,78.70
2023-05-08T01:01:34.885Z,78.82
2023-05-08T01:02:16.828Z,79.02
2023-05-08T01:02:57.910Z,79.37
2023-05-08T01:03:40.967Z,79.74
2023-05-08T01:04:20.992Z,78.86
2023-05-08T01:05:01.729Z,78.69
2023-05-08T01:05:42.820Z,78.87
2023-05-08T01:06:22.782Z,79.04
2023-05-08T01:07:03.867Z,78.84
2023-05-08T01:07:45.764Z,79.14
2023-05-08T01:08:25.839Z,79.07
2023-05-08T01:09:05.773Z,78.96
2023-05-08T01:09:45.889Z,79.02
2023-05-08T01:10:25.751Z,78.95
2023-05-08T01:11:40.814Z,78.87
2023-05-08T01:13:03.785Z,79.11
2023-05-08T01:14:20.799Z,79.09
2023-05-08T01:15:12.653Z,79.30
2023-05-08T01:16:14.765Z,79.38
2023-05-08T01:17:12.554Z,79.43
2023-05-08T01:18:41.748Z,79.89
2023-05-08T01:19:46.787Z,79.49
2023-05-08T01:21:02.982Z,79.62
2023-05-08T01:22:01.761Z,79.51
2023-05-08T01:23:10.830Z,79.53
2023-05-08T01:24:42.727Z,80.67
2023-05-08T01:25:46.759Z,80.41
2023-05-08T01:26:58.807Z,80.05
2023-05-08T01:28:34.735Z,80.11
2023-05-08T01:29:42.839Z,80.63
2023-05-08T01:31:14.751Z,80.24
2023-05-08T01:32:20.932Z,79.58
2023-05-08T01:33:42.854Z,80.19
2023-05-08T01:34:29.844Z,80.11
2023-05-08T01:35:35.731Z,79.76
2023-05-08T01:36:47.741Z,80.31
2023-05-08T01:37:55.745Z,80.60
2023-05-08T01:39:08.725Z,79.92
2023-05-08T01:40:26.741Z,80.56
2023-05-08T01:41:29.741Z,80.70
2023-05-08T01:42:16.734Z,81.97
2023-05-08T01:43:10.881Z,80.72
2023-05-08T01:44:11.679Z,80.45
2023-05-08T01:44:58.861Z,80.36
2023-05-08T01:45:45.737Z,80.51
2023-05-08T01:46:31.909Z,80.65
2023-05-08T01:47:17.728Z,80.60
2023-05-08T01:48:20.872Z,80.71
2023-05-08T01:49:15.715Z,80.61
2023-05-08T01:50:02.911Z,80.24
2023-05-08T01:50:54.703Z,80.66
2023-05-08T01:51:35.776Z,80.74
2023-05-08T01:52:52.833Z,81.46
2023-05-08T01:53:47.857Z,80.96
2023-05-08T01:54:30.722Z,80.56
2023-05-08T01:55:16.856Z,80.48
2023-05-08T01:56:00.700Z,81.08
2023-05-08T01:56:42.794Z,81.08
2023-05-08T01:57:24.707Z,81.53
2023-05-08T01:58:12.746Z,80.45
2023-05-08T01:59:07.721Z,80.18
2023-05-08T02:00:03.733Z,80.10
2023-05-08T02:00:58.963Z,79.89
2023-05-08T02:01:53.729Z,80.38
2023-05-08T02:02:58.128Z,80.14
2023-05-08T02:03:40.785Z,80.12
2023-05-08T02:04:15.810Z,80.34
2023-05-08T02:04:50.488Z,80.46
2023-05-08T02:05:31.713Z,80.30
2023-05-08T02:06:06.805Z,80.14
2023-05-08T02:06:40.946Z,80.06
2023-05-08T02:07:21.736Z,79.96
2023-05-08T02:07:56.895Z,79.77
2023-05-08T02:08:31.919Z,79.83
2023-05-08T02:09:15.697Z,80.07
2023-05-08T02:09:50.815Z,79.79
2023-05-08T02:10:24.839Z,79.81
2023-05-08T02:11:05.667Z,79.46
2023-05-08T02:11:39.812Z,80.23
2023-05-08T02:12:13.977Z,80.47
2023-05-08T02:12:54.778Z,80.04
2023-05-08T02:13:29.088Z,80.10
2023-05-08T02:14:03.360Z,80.56
2023-05-08T02:14:45.709Z,80.38
2023-05-08T02:15:20.750Z,80.91
2023-05-08T02:15:55.225Z,81.18
2023-05-08T02:16:36.672Z,80.84
2023-05-08T02:17:11.756Z,81.14
2023-05-08T02:17:49.120Z,81.27
2023-05-08T02:18:31.689Z,80.98
2023-05-08T02:19:07.807Z,81.73
2023-05-08T02:19:41.858Z,81.79
2023-05-08T02:20:22.691Z,81.43
2023-05-08T02:20:57.794Z,81.22
2023-05-08T02:21:31.993Z,81.97
2023-05-08T02:22:12.682Z,81.29
2023-05-08T02:22:48.824Z,81.04
2023-05-08T02:23:24.675Z,81.03
2023-05-08T02:24:05.676Z,81.46
2023-05-08T02:24:40.804Z,81.69
2023-05-08T02:25:16.250Z,81.40
2023-05-08T02:25:59.719Z,80.77
2023-05-08T02:26:33.771Z,80.69
2023-05-08T02:27:08.794Z,80.91
2023-05-08T02:27:51.686Z,80.60
2023-05-08T02:28:26.782Z,80.71
2023-05-08T02:29:02.592Z,80.42
2023-05-08T02:29:43.664Z,80.29
2023-05-08T02:30:21.739Z,80.58
2023-05-08T02:30:57.595Z,80.14
2023-05-08T02:31:38.769Z,80.21
2023-05-08T02:32:14.926Z,80.20
2023-05-08T02:32:49.961Z,80.36
2023-05-08T02:33:31.698Z,80.27
2023-05-08T02:34:06.988Z,79.99
2023-05-08T02:34:45.405Z,80.17
2023-05-08T02:35:36.699Z,80.41
2023-05-08T02:36:20.847Z,80.12
2023-05-08T02:37:01.645Z,80.74
2023-05-08T02:37:42.758Z,80.99
2023-05-08T02:38:23.720Z,80.63
2023-05-08T02:39:05.820Z,80.88
2023-05-08T02:39:46.663Z,80.89
2023-05-08T02:40:31.825Z,80.89
2023-05-08T02:41:13.681Z,80.50
2023-05-08T02:41:54.759Z,80.22
2023-05-08T02:42:34.667Z,80.69
2023-05-08T02:43:14.729Z,80.31
2023-05-08T02:43:56.684Z,80.30
2023-05-08T02:44:36.782Z,80.85
2023-05-08T02:45:18.675Z,80.78
2023-05-08T02:46:36.870Z,80.94
2023-05-08T02:47:29.702Z,80.59
2023-05-08T02:48:20.669Z,80.56
2023-05-08T02:49:08.738Z,80.87
2023-05-08T02:50:21.024Z,80.76
2023-05-08T02:51:17.741Z,80.97
2023-05-08T02:52:01.743Z,80.48
2023-05-08T02:52:54.741Z,80.19
2023-05-08T02:53:46.736Z,81.71
2023-05-08T02:54:48.791Z,80.70
2023-05-08T02:55:47.251Z,81.19
2023-05-08T02:56:43.618Z,81.23
2023-05-08T02:57:34.539Z,80.91
2023-05-08T02:58:20.837Z,80.73
2023-05-08T02:59:13.667Z,80.96
2023-05-08T02:59:53.686Z,80.58
2023-05-08T03:00:32.701Z,80.84
2023-05-08T03:01:21.888Z,80.82
2023-05-08T03:02:16.752Z,81.34
2023-05-08T03:02:56.230Z,81.39
2023-05-08T03:03:50.944Z,81.11
2023-05-08T03:04:49.924Z,81.01
2023-05-08T03:05:30.802Z,80.64
2023-05-08T03:06:26.636Z,80.55
2023-05-08T03:07:01.505Z,80.56
2023-05-08T03:07:52.635Z,80.44
2023-05-08T03:08:33.061Z,80.39
2023-05-08T03:09:20.615Z,80.47
2023-05-08T03:10:15.003Z,80.19
2023-05-08T03:11:14.623Z,80.17
2023-05-08T03:12:18.649Z,80.00
2023-05-08T03:13:17.668Z,80.48
2023-05-08T03:14:12.650Z,80.52
2023-05-08T03:15:26.666Z,80.77
2023-05-08T03:16:31.675Z,81.24
2023-05-08T03:17:29.697Z,81.45
2023-05-08T03:18:32.618Z,81.59
2023-05-08T03:19:35.600Z,82.09
2023-05-08T03:20:31.643Z,81.10
2023-05-08T03:21:27.606Z,81.10
2023-05-08T03:22:22.616Z,81.04
2023-05-08T03:23:18.614Z,80.80
2023-05-08T03:24:14.636Z,81.09
2023-05-08T03:25:09.619Z,80.50
2023-05-08T03:25:57.643Z,80.67
2023-05-08T03:26:31.672Z,80.69
2023-05-08T03:27:19.608Z,80.78
2023-05-08T03:27:53.668Z,80.47
2023-05-08T03:28:42.595Z,80.86
2023-05-08T03:29:16.918Z,80.80
2023-05-08T03:30:04.637Z,80.77
2023-05-08T03:30:46.743Z,80.68
2023-05-08T03:31:28.704Z,80.85
2023-05-08T03:32:08.711Z,80.81
2023-05-08T03:32:52.703Z,81.42
2023-05-08T03:33:33.727Z,80.78
2023-05-08T03:34:15.575Z,81.26
2023-05-08T03:34:56.706Z,81.20
2023-05-08T03:35:38.614Z,80.92
2023-05-08T03:36:13.541Z,80.99
2023-05-08T03:36:54.689Z,81.53
2023-05-08T03:37:28.753Z,81.44
2023-05-08T03:38:02.800Z,81.19
2023-05-08T03:38:42.605Z,81.25
2023-05-08T03:39:16.689Z,81.29
2023-05-08T03:39:52.098Z,81.33
2023-05-08T03:40:32.599Z,81.70
2023-05-08T03:41:06.662Z,81.65
2023-05-08T03:41:40.608Z,81.13
2023-05-08T03:42:27.652Z,81.97
2023-05-08T03:43:03.064Z,81.86
2023-05-08T03:43:37.971Z,82.08
2023-05-08T03:44:18.644Z,82.14
2023-05-08T03:44:53.794Z,81.24
2023-05-08T03:45:27.937Z,81.86
2023-05-08T03:46:08.661Z,82.11
2023-05-08T03:46:42.796Z,83.16
2023-05-08T03:47:18.836Z,82.62
2023-05-08T03:48:00.655Z,83.00
2023-05-08T03:48:35.769Z,82.67
2023-05-08T03:49:10.096Z,82.97
2023-05-08T03:49:50.632Z,83.61
2023-05-08T03:50:24.717Z,82.76
2023-05-08T03:50:59.074Z,82.88
2023-05-08T03:51:39.586Z,82.83
2023-05-08T03:52:13.734Z,83.04
2023-05-08T03:52:48.439Z,82.73
2023-05-08T03:53:28.629Z,82.83
2023-05-08T03:54:02.652Z,83.28
2023-05-08T03:54:36.355Z,84.12
2023-05-08T03:55:17.575Z,83.63
2023-05-08T03:55:51.679Z,83.33
2023-05-08T03:56:26.405Z,83.71
2023-05-08T03:57:07.591Z,84.12
2023-05-08T03:58:20.967Z,84.75
2023-05-08T03:59:40.650Z,84.17
2023-05-08T04:00:36.732Z,84.20
2023-05-08T04:01:56.681Z,84.58
2023-05-08T04:02:44.743Z,84.94
2023-05-08T04:04:02.633Z,85.83
2023-05-08T04:04:54.637Z,86.99
2023-05-08T04:05:41.885Z,86.62
2023-05-08T04:06:49.916Z,87.35
2023-05-08T04:07:37.898Z,87.21
2023-05-08T04:08:38.602Z,87.94
2023-05-08T04:09:24.873Z,87.28
2023-05-08T04:10:27.609Z,86.76
2023-05-08T04:11:18.319Z,86.84
2023-05-08T04:12:18.665Z,87.08
2023-05-08T04:13:11.046Z,86.94
2023-05-08T04:14:03.707Z,86.54
2023-05-08T04:14:56.948Z,87.03
2023-05-08T04:15:48.592Z,86.31
2023-05-08T04:16:27.090Z,88.22
2023-05-08T04:17:17.650Z,87.57
2023-05-08T04:17:57.620Z,88.56
2023-05-08T04:18:44.702Z,88.43
2023-05-08T04:19:27.829Z,89.42
2023-05-08T04:20:18.584Z,88.96
2023-05-08T04:21:01.590Z,89.35
2023-05-08T04:21:45.209Z,89.41
2023-05-08T04:22:28.641Z,90.21
2023-05-08T04:23:09.752Z,90.80
2023-05-08T04:23:51.627Z,90.80
2023-05-08T04:24:34.693Z,91.25
2023-05-08T04:25:15.831Z,90.88
2023-05-08T04:25:58.676Z,91.01
2023-05-08T04:26:39.607Z,91.17
2023-05-08T04:27:21.181Z,91.16
2023-05-08T04:28:03.571Z,91.61
2023-05-08T04:28:46.739Z,91.90
2023-05-08T04:29:27.604Z,91.87
2023-05-08T04:30:08.709Z,91.79
2023-05-08T04:30:48.600Z,92.01
2023-05-08T04:31:30.553Z,92.16
2023-05-08T04:32:12.728Z,92.26
2023-05-08T04:32:53.673Z,92.64
2023-05-08T04:33:28.475Z,93.08
2023-05-08T04:34:11.549Z,92.64
2023-05-08T04:34:45.672Z,91.62
2023-05-08T04:35:19.372Z,91.76
2023-05-08T04:35:59.555Z,92.55
2023-05-08T04:36:33.977Z,92.93
2023-05-08T04:37:08.534Z,93.38
2023-05-08T04:37:50.620Z,93.28
2023-05-08T04:38:24.648Z,92.56
2023-05-08T04:38:59.229Z,92.73
2023-05-08T04:39:40.276Z,92.75
2023-05-08T04:40:15.701Z,92.29
2023-05-08T04:40:49.352Z,91.77
2023-05-08T04:41:30.613Z,93.13
2023-05-08T04:42:04.877Z,92.79
2023-05-08T04:42:39.665Z,92.86
2023-05-08T04:43:19.631Z,93.31
2023-05-08T04:43:53.673Z,92.76
2023-05-08T04:44:27.577Z,93.37
2023-05-08T04:45:07.559Z,93.17
2023-05-08T04:45:41.645Z,92.76
2023-05-08T04:46:15.596Z,92.39
2023-05-08T04:46:56.577Z,92.34
2023-05-08T04:47:31.002Z,93.00
2023-05-08T04:48:05.987Z,93.36
2023-05-08T04:48:45.643Z,93.03
2023-05-08T04:49:19.666Z,93.26
2023-05-08T04:49:53.380Z,93.19
2023-05-08T04:50:33.608Z,93.13
2023-05-08T04:51:07.657Z,93.30
2023-05-08T04:51:41.374Z,93.32
2023-05-08T04:52:21.572Z,92.98
2023-05-08T04:52:55.791Z,93.20
2023-05-08T04:53:29.318Z,93.38
2023-05-08T04:54:10.636Z,93.14
2023-05-08T04:54:44.682Z,93.27
2023-05-08T04:55:18.489Z,93.02
2023-05-08T04:55:59.646Z,93.08
2023-05-08T04:56:33.643Z,93.04
2023-05-08T04:57:08.145Z,93.17
2023-05-08T04:57:48.609Z,93.22
2023-05-08T04:58:28.980Z,92.94
2023-05-08T04:59:09.543Z,92.74
2023-05-08T04:59:49.590Z,93.10
2023-05-08T05:00:24.666Z,92.72
2023-05-08T05:01:02.607Z,92.37
2023-05-08T05:01:42.576Z,92.38
2023-05-08T05:02:16.669Z,92.83
2023-05-08T05:02:52.908Z,92.83
2023-05-08T05:03:32.615Z,93.73
2023-05-08T05:04:07.408Z,93.31
2023-05-08T05:04:47.672Z,93.25
2023-05-08T05:05:27.749Z,93.38
2023-05-08T05:06:08.737Z,93.08
2023-05-08T05:06:48.683Z,93.05
2023-05-08T05:07:28.594Z,93.27
2023-05-08T05:08:09.938Z,93.07
2023-05-08T05:08:50.562Z,93.29
2023-05-08T05:09:30.777Z,93.39
2023-05-08T05:10:11.558Z,93.40
2023-05-08T05:10:51.725Z,93.40
2023-05-08T05:11:32.518Z,93.08
2023-05-08T05:12:14.682Z,93.34
2023-05-08T05:12:54.606Z,92.90
2023-05-08T05:13:35.635Z,93.89
2023-05-08T05:14:15.612Z,93.61
2023-05-08T05:14:56.658Z,93.20
2023-05-08T05:15:36.570Z,93.84
2023-05-08T05:16:17.727Z,93.12
2023-05-08T05:16:57.548Z,93.76
2023-05-08T05:17:37.779Z,93.67
2023-05-08T05:18:19.571Z,94.11
2023-05-08T05:19:00.580Z,94.02
2023-05-08T05:19:47.503Z,94.00
2023-05-08T05:20:21.676Z,93.95
2023-05-08T05:21:05.688Z,93.63
2023-05-08T05:21:46.705Z,93.82
2023-05-08T05:22:27.502Z,93.56
2023-05-08T05:23:07.760Z,93.65
2023-05-08T05:23:47.470Z,93.92
2023-05-08T05:24:27.638Z,94.34
2023-05-08T05:25:07.593Z,94.17
2023-05-08T05:25:47.674Z,93.91
2023-05-08T05:26:28.569Z,93.95
2023-05-08T05:27:11.616Z,93.96
2023-05-08T05:27:52.619Z,94.64
2023-05-08T05:28:32.612Z,94.82
2023-05-08T05:29:13.502Z,94.24
2023-05-08T05:29:53.983Z,93.93
2023-05-08T05:30:34.516Z,94.18
2023-05-08T05:31:14.571Z,94.28
2023-05-08T05:31:56.640Z,94.49
2023-05-08T05:32:36.775Z,94.59
2023-05-08T05:33:16.588Z,94.47
2023-05-08T05:33:56.929Z,94.94
2023-05-08T05:34:39.539Z,94.94
2023-05-08T05:35:19.575Z,94.47
2023-05-08T05:36:00.572Z,94.10
2023-05-08T05:36:40.650Z,93.86
2023-05-08T05:37:20.514Z,93.62
2023-05-08T05:38:00.637Z,93.45
2023-05-08T05:38:40.528Z,93.90
2023-05-08T05:39:20.746Z,94.17
2023-05-08T05:40:01.531Z,94.06
2023-05-08T05:40:41.624Z,94.07
2023-05-08T05:41:21.524Z,94.03
2023-05-08T05:42:02.796Z,94.18
2023-05-08T05:42:42.502Z,94.44
2023-05-08T05:43:22.640Z,94.31
2023-05-08T05:44:03.558Z,94.98
2023-05-08T05:44:44.701Z,94.56
2023-05-08T05:45:25.502Z,94.35
2023-05-08T05:46:13.716Z,94.07
2023-05-08T05:46:55.588Z,93.61
2023-05-08T05:47:36.663Z,94.15
2023-05-08T05:48:17.544Z,93.84
2023-05-08T05:48:57.563Z,93.48
2023-05-08T05:49:38.489Z,93.82
2023-05-08T05:50:18.745Z,93.81
2023-05-08T05:50:58.511Z,93.54
2023-05-08T05:51:38.620Z,93.56
2023-05-08T05:52:19.477Z,93.42
2023-05-08T05:53:00.950Z,93.41
2023-05-08T05:53:40.510Z,93.56
2023-05-08T05:54:20.573Z,93.42
2023-05-08T05:55:00.466Z,93.28
2023-05-08T05:55:41.270Z,93.45
2023-05-08T05:56:21.593Z,93.34
2023-05-08T05:57:01.776Z,93.51
2023-05-08T05:57:41.523Z,92.95
2023-05-08T05:58:21.632Z,93.51
2023-05-08T05:59:01.814Z,92.80
2023-05-08T05:59:43.670Z,92.97
2023-05-08T06:00:24.539Z,92.83
2023-05-08T06:01:05.603Z,92.47
2023-05-08T06:01:46.541Z,92.33
2023-05-08T06:02:59.814Z,92.15
2023-05-08T06:03:40.606Z,92.44
2023-05-08T06:04:21.615Z,91.71
2023-05-08T06:04:55.604Z,91.83
2023-05-08T06:05:43.548Z,91.23
2023-05-08T06:06:17.666Z,91.36
2023-05-08T06:07:04.833Z,91.83
2023-05-08T06:07:38.720Z,91.00
2023-05-08T06:08:25.558Z,91.34
2023-05-08T06:08:59.728Z,91.47
2023-05-08T06:09:48.592Z,91.20
2023-05-08T06:10:22.686Z,90.80
2023-05-08T06:11:10.535Z,90.78
2023-05-08T06:11:44.574Z,90.93
2023-05-08T06:12:32.485Z,90.89
2023-05-08T06:13:06.668Z,90.96
2023-05-08T06:13:53.456Z,91.16
2023-05-08T06:14:34.636Z,91.31
2023-05-08T06:15:15.583Z,90.91
2023-05-08T06:15:58.351Z,91.04
2023-05-08T06:16:39.505Z,90.83
2023-05-08T06:17:34.648Z,90.65
2023-05-08T06:18:18.485Z,91.01
2023-05-08T06:18:59.530Z,91.08
2023-05-08T06:19:39.520Z,90.55
2023-05-08T06:20:27.553Z,90.28
2023-05-08T06:21:01.269Z,90.75
2023-05-08T06:21:48.456Z,90.57
2023-05-08T06:22:24.354Z,90.71
2023-05-08T06:23:12.608Z,90.72
2023-05-08T06:23:46.216Z,90.46
2023-05-08T06:24:33.488Z,90.22
2023-05-08T06:25:08.445Z,90.32
2023-05-08T06:25:49.465Z,89.95
2023-05-08T06:26:23.717Z,89.87
2023-05-08T06:26:57.373Z,89.50
2023-05-08T06:27:38.576Z,89.74
2023-05-08T06:28:12.611Z,89.82
2023-05-08T06:28:46.220Z,89.69
2023-05-08T06:29:27.455Z,89.57
2023-05-08T06:30:01.629Z,89.50
2023-05-08T06:30:35.412Z,89.93
2023-05-08T06:31:15.435Z,89.86
2023-05-08T06:31:49.648Z,89.72
2023-05-08T06:32:23.239Z,89.69
2023-05-08T06:33:04.545Z,89.82
2023-05-08T06:33:38.838Z,89.95
2023-05-08T06:34:13.522Z,89.65
2023-05-08T06:34:54.611Z,89.35
2023-05-08T06:35:28.592Z,89.65
2023-05-08T06:36:03.750Z,89.72
2023-05-08T06:36:44.406Z,89.66
2023-05-08T06:37:18.572Z,89.32
2023-05-08T06:37:52.195Z,90.00
2023-05-08T06:38:32.448Z,89.65
2023-05-08T06:39:27.416Z,89.38
2023-05-08T06:40:22.618Z,89.51
2023-05-08T06:41:16.489Z,89.57
2023-05-08T06:42:03.440Z,89.45
2023-05-08T06:42:37.527Z,89.34
2023-05-08T06:43:24.405Z,89.41
2023-05-08T06:43:58.495Z,89.39
2023-05-08T06:44:47.468Z,89.62
2023-05-08T06:45:21.564Z,89.57
2023-05-08T06:46:08.494Z,89.72
2023-05-08T06:46:42.586Z,89.54
2023-05-08T06:47:23.622Z,89.35
2023-05-08T06:48:03.626Z,89.03
2023-05-08T06:48:43.431Z,88.57
2023-05-08T06:49:23.508Z,88.99
2023-05-08T06:50:03.399Z,88.71
2023-05-08T06:50:48.005Z,89.39
2023-05-08T06:51:29.474Z,89.55
2023-05-08T06:52:09.515Z,89.31
2023-05-08T06:52:50.493Z,89.41
2023-05-08T06:53:30.661Z,89.23
2023-05-08T06:54:14.415Z,89.30
2023-05-08T06:54:54.515Z,89.22
2023-05-08T06:55:34.465Z,89.09
2023-05-08T06:56:29.418Z,89.24
2023-05-08T06:57:23.435Z,88.99
2023-05-08T06:58:11.663Z,89.11
2023-05-08T06:58:53.701Z,89.52
2023-05-08T06:59:51.417Z,88.97
2023-05-08T07:00:25.665Z,88.94
2023-05-08T07:01:13.494Z,89.15
2023-05-08T07:01:47.594Z,88.66
2023-05-08T07:02:34.476Z,88.72
2023-05-08T07:03:08.585Z,88.72
2023-05-08T07:03:49.518Z,88.92
2023-05-08T07:04:31.992Z,88.70
2023-05-08T07:05:13.721Z,88.64
2023-05-08T07:05:54.575Z,88.33
2023-05-08T07:06:34.460Z,88.36
2023-05-08T07:07:15.348Z,88.30
2023-05-08T07:07:55.500Z,88.22
2023-05-08T07:08:35.605Z,87.62
2023-05-08T07:09:16.953Z,87.91
2023-05-08T07:09:57.519Z,87.93
2023-05-08T07:10:37.372Z,88.14
2023-05-08T07:11:17.489Z,88.14
2023-05-08T07:11:58.421Z,88.26
2023-05-08T07:12:38.606Z,87.81
2023-05-08T07:13:19.599Z,87.38
2023-05-08T07:14:00.211Z,86.33
2023-05-08T07:14:40.470Z,85.79
2023-05-08T07:15:41.082Z,85.24
2023-05-08T07:16:22.457Z,84.77
2023-05-08T07:17:06.803Z,84.95
2023-05-08T07:17:48.440Z,85.54
2023-05-08T07:18:28.459Z,84.95
2023-05-08T07:19:08.418Z,85.04
2023-05-08T07:19:55.475Z,85.14
2023-05-08T07:20:49.462Z,84.06
2023-05-08T07:21:43.477Z,84.07
2023-05-08T07:22:37.461Z,83.91
2023-05-08T07:23:31.396Z,84.10
2023-05-08T07:24:25.522Z,84.17
2023-05-08T07:25:13.560Z,83.74
2023-05-08T07:25:47.551Z,83.28
2023-05-08T07:26:34.403Z,83.09
2023-05-08T07:27:08.579Z,83.50
2023-05-08T07:27:55.448Z,83.48
2023-05-08T07:28:29.454Z,82.72
2023-05-08T07:29:16.401Z,82.66
2023-05-08T07:29:50.640Z,82.45
2023-05-08T07:30:38.437Z,82.34
2023-05-08T07:31:12.605Z,82.75
2023-05-08T07:31:59.542Z,82.54
2023-05-08T07:32:33.512Z,82.75
2023-05-08T07:33:20.462Z,82.61
2023-05-08T07:33:54.449Z,83.21
2023-05-08T07:34:41.382Z,82.44
2023-05-08T07:35:15.721Z,82.22
2023-05-08T07:36:03.427Z,82.08
2023-05-08T07:36:37.816Z,82.61
2023-05-08T07:37:24.380Z,81.83
2023-05-08T07:37:58.674Z,81.83
2023-05-08T07:38:46.393Z,81.43
2023-05-08T07:39:20.616Z,81.73
2023-05-08T07:40:07.407Z,81.98
2023-05-08T07:40:41.653Z,81.97
2023-05-08T07:41:28.412Z,81.52
2023-05-08T07:42:02.465Z,81.76
2023-05-08T07:42:51.363Z,81.53
2023-05-08T07:43:25.482Z,81.67
2023-05-08T07:44:13.395Z,81.56
2023-05-08T07:44:54.499Z,81.36
2023-05-08T07:45:42.454Z,81.14
2023-05-08T07:46:23.690Z,81.09
2023-05-08T07:47:04.485Z,81.24
2023-05-08T07:48:05.656Z,81.31
2023-05-08T07:48:46.452Z,81.44
2023-05-08T07:49:26.487Z,81.13
2023-05-08T07:50:06.450Z,80.85
2023-05-08T07:50:46.512Z,80.91
2023-05-08T07:51:26.402Z,81.00
2023-05-08T07:52:13.453Z,80.79
2023-05-08T07:53:07.384Z,79.96
2023-05-08T07:54:01.394Z,79.95
2023-05-08T07:54:55.452Z,79.42
2023-05-08T07:55:49.378Z,80.19
2023-05-08T07:56:43.410Z,80.70
2023-05-08T07:57:31.440Z,80.70
2023-05-08T07:58:05.483Z,80.72
2023-05-08T07:58:54.354Z,80.16
2023-05-08T07:59:28.453Z,80.19
2023-05-08T08:00:18.400Z,79.86
2023-05-08T08:00:52.489Z,79.57
2023-05-08T08:01:39.390Z,79.44
2023-05-08T08:02:45.504Z,78.83
2023-05-08T08:03:26.594Z,78.67
2023-05-08T08:04:07.438Z,78.11
2023-05-08T08:04:47.429Z,78.54
2023-05-08T08:05:28.358Z,78.82
2023-05-08T08:06:08.427Z,78.83
2023-05-08T08:06:48.340Z,78.76
2023-05-08T08:07:29.743Z,79.01
2023-05-08T08:08:12.367Z,78.87
2023-05-08T08:08:52.441Z,79.10
2023-05-08T08:09:32.407Z,79.14
2023-05-08T08:10:13.508Z,78.79
2023-05-08T08:10:53.358Z,78.80
2023-05-08T08:11:34.453Z,78.73
2023-05-08T08:12:14.416Z,78.58
2023-05-08T08:12:54.573Z,79.00
2023-05-08T08:13:34.494Z,78.76
2023-05-08T08:14:14.426Z,78.57
2023-05-08T08:14:54.313Z,78.64
2023-05-08T08:15:35.437Z,78.14
2023-05-08T08:16:15.344Z,78.10
2023-05-08T08:16:55.533Z,77.88
2023-05-08T08:17:35.448Z,78.27
2023-05-08T08:18:15.447Z,78.08
2023-05-08T08:18:55.423Z,78.11
2023-05-08T08:19:36.426Z,78.60
2023-05-08T08:20:17.340Z,79.04
2023-05-08T08:20:57.466Z,78.78
2023-05-08T08:21:38.373Z,78.43
2023-05-08T08:22:18.469Z,78.49
2023-05-08T08:22:59.527Z,78.15
2023-05-08T08:23:40.414Z,78.02
2023-05-08T08:24:20.363Z,78.06
2023-05-08T08:25:03.691Z,77.23
2023-05-08T08:25:44.345Z,76.79
2023-05-08T08:26:25.207Z,77.04
2023-05-08T08:27:05.323Z,76.81
2023-05-08T08:27:46.401Z,77.21
2023-05-08T08:28:27.363Z,77.23
2023-05-08T08:29:07.445Z,76.74
2023-05-08T08:29:49.397Z,76.94
2023-05-08T08:30:29.513Z,77.01
2023-05-08T08:31:09.365Z,77.50
2023-05-08T08:31:50.426Z,77.15
2023-05-08T08:32:30.365Z,76.88
2023-05-08T08:33:10.427Z,76.66
2023-05-08T08:33:50.316Z,76.71
2023-05-08T08:34:30.438Z,76.44
2023-05-08T08:35:11.583Z,76.01
2023-05-08T08:35:52.532Z,75.95
2023-05-08T08:36:32.400Z,76.22
2023-05-08T08:37:13.531Z,76.74
2023-05-08T08:37:53.318Z,75.87
2023-05-08T08:38:33.455Z,75.35
2023-05-08T08:39:15.219Z,75.13
2023-05-08T08:39:56.429Z,75.22
2023-05-08T08:40:37.371Z,75.58
2023-05-08T08:41:21.290Z,74.99
2023-05-08T08:42:01.370Z,74.48
2023-05-08T08:42:42.442Z,74.75
2023-05-08T08:43:22.352Z,74.85
2023-05-08T08:44:03.407Z,74.69
2023-05-08T08:44:44.320Z,74.99
2023-05-08T08:45:24.407Z,75.42
2023-05-08T08:46:06.461Z,74.96
2023-05-08T08:47:00.553Z,74.64
2023-05-08T08:47:50.340Z,75.60
2023-05-08T08:48:35.407Z,75.40
2023-05-08T08:49:17.373Z,75.12
2023-05-08T08:49:58.384Z,75.22
2023-05-08T08:50:40.364Z,75.40
2023-05-08T08:51:47.385Z,75.07
2023-05-08T08:52:42.032Z,75.48
2023-05-08T08:53:32.360Z,75.88
2023-05-08T08:54:13.908Z,75.74
2023-05-08T08:55:03.391Z,76.06
2023-05-08T08:55:43.247Z,76.47
2023-05-08T08:56:31.326Z,75.50
2023-05-08T08:57:14.345Z,75.30
2023-05-08T08:58:28.449Z,75.09
2023-05-08T08:59:09.350Z,75.54
2023-05-08T08:59:52.040Z,75.77
2023-05-08T09:00:36.361Z,76.21
2023-05-08T09:01:23.497Z,76.41
2023-05-08T09:02:08.374Z,76.60
2023-05-08T09:02:48.475Z,76.32
2023-05-08T09:03:22.480Z,75.80
2023-05-08T09:04:02.123Z,75.67
2023-05-08T09:04:43.311Z,76.00
2023-05-08T09:05:18.446Z,75.73
2023-05-08T09:05:52.318Z,75.62
2023-05-08T09:06:34.278Z,74.47
2023-05-08T09:07:08.996Z,75.04
2023-05-08T09:07:43.877Z,74.78
2023-05-08T09:08:28.343Z,74.48
2023-05-08T09:09:03.444Z,74.10
2023-05-08T09:09:41.102Z,74.05
2023-05-08T09:10:22.324Z,73.70
2023-05-08T09:10:56.425Z,74.01
2023-05-08T09:11:30.295Z,74.29
2023-05-08T09:12:11.380Z,74.55
2023-05-08T09:12:45.509Z,74.90
2023-05-08T09:13:19.813Z,74.75
2023-05-08T09:14:04.288Z,74.71
2023-05-08T09:14:38.465Z,75.01
2023-05-08T09:15:12.792Z,74.21
2023-05-08T09:15:55.357Z,74.32
2023-05-08T09:16:30.497Z,74.35
2023-05-08T09:17:04.244Z,74.66
2023-05-08T09:17:44.322Z,74.81
2023-05-08T09:18:19.298Z,74.29